Time;durP1;ratioP1;P1;durP2;ratioP2;P2;SDS_P1;SDS_P2;PMS_P1;PMS_P2;Temp;Humidity;BMP_temperature;BMP_pressure;BME280_temperature;BME280_humidity;BME280_pressure;Samples;Min_cycle;Max_cycle;Signal;HPM_P1;HPM_P2
2022/03/29 00:00:46;;;;;;;18.70;14.80;;;;;;;8.16;85.56;101094.34;5115930;28;20238;-67
2022/03/29 00:03:12;;;;;;;19.03;15.67;;;;;;;8.11;85.85;101098.81;5115601;28;20197;-67
2022/03/29 00:05:39;;;;;;;18.17;16.10;;;;;;;8.12;85.91;101089.22;5115352;28;20193;-67
2022/03/29 00:08:05;;;;;;;23.20;15.83;;;;;;;8.10;85.93;101099.69;5115584;28;20655;-67
2022/03/29 00:10:32;;;;;;;20.77;16.33;;;;;;;8.11;85.91;101090.97;5114268;28;20698;-67
2022/03/29 00:12:58;;;;;;;20.07;16.70;;;;;;;8.11;85.95;101092.72;5115325;28;20182;-67
2022/03/29 00:15:25;;;;;;;25.53;16.50;;;;;;;7.97;86.50;101080.88;5115128;28;20246;-67
2022/03/29 00:17:51;;;;;;;21.40;15.00;;;;;;;7.92;87.01;101087.09;5115321;28;20258;-67
2022/03/29 00:20:19;;;;;;;24.33;15.70;;;;;;;7.98;86.79;101084.34;5115021;28;20186;-67
2022/03/29 00:22:49;;;;;;;25.10;15.90;;;;;;;7.90;86.97;101081.94;5115217;28;20608;-67
2022/03/29 00:25:16;;;;;;;25.07;17.47;;;;;;;7.93;87.04;101081.88;5115086;28;20709;-67
2022/03/29 00:27:43;;;;;;;20.97;15.60;;;;;;;7.85;87.12;101083.78;5114858;28;20185;-67
2022/03/29 00:30:11;;;;;;;30.80;16.30;;;;;;;7.93;86.96;101078.38;5115024;28;20603;-67
2022/03/29 00:32:42;;;;;;;19.20;16.13;;;;;;;7.83;87.38;101074.31;5115308;28;20189;-67
2022/03/29 00:35:09;;;;;;;24.87;15.90;;;;;;;7.78;87.32;101073.56;5114809;28;20266;-67
2022/03/29 00:37:37;;;;;;;22.60;16.33;;;;;;;7.76;87.77;101067.53;5114918;28;20205;-67
2022/03/29 00:40:06;;;;;;;20.77;16.20;;;;;;;7.76;87.79;101068.38;5115135;28;20603;-67
2022/03/29 00:42:32;;;;;;;21.97;16.43;;;;;;;7.73;87.82;101058.03;5115152;28;20174;-67
2022/03/29 00:44:59;;;;;;;19.37;15.97;;;;;;;7.70;88.08;101058.09;5114485;28;20329;-67
2022/03/29 00:47:25;;;;;;;23.83;16.57;;;;;;;7.59;88.54;101058.38;5114733;28;20235;-67
2022/03/29 00:49:51;;;;;;;19.17;16.57;;;;;;;7.58;88.61;101061.88;5114495;28;20189;-67
2022/03/29 00:52:19;;;;;;;20.53;17.40;;;;;;;7.58;88.95;101061.00;5114611;28;20193;-67
2022/03/29 00:54:47;;;;;;;22.63;17.20;;;;;;;7.57;89.13;101054.06;5114297;28;20266;-67
2022/03/29 00:57:13;;;;;;;18.10;15.70;;;;;;;7.56;89.23;101047.16;5114548;28;20647;-67
2022/03/29 00:59:45;;;;;;;28.03;16.87;;;;;;;7.52;89.30;101046.38;5114522;28;20185;-67
2022/03/29 01:02:13;;;;;;;21.87;17.30;;;;;;;7.53;89.37;101049.84;5114798;28;20165;-67
2022/03/29 01:04:39;;;;;;;25.30;17.50;;;;;;;7.49;89.50;101049.03;5114078;28;20212;-67
2022/03/29 01:07:07;;;;;;;24.97;18.17;;;;;;;7.53;89.56;101036.81;5114080;28;20217;-67
2022/03/29 01:09:34;;;;;;;20.80;15.90;;;;;;;7.49;89.72;101042.97;5114956;28;20226;-67
2022/03/29 01:12:00;;;;;;;20.00;17.13;;;;;;;7.45;89.67;101050.00;5114768;28;20277;-67
2022/03/29 01:14:28;;;;;;;22.90;18.73;;;;;;;7.43;89.66;101050.06;5114430;28;20262;-67
2022/03/29 01:19:43;;;;;;;22.93;18.23;;;;;;;7.38;89.97;101046.69;5113776;28;20605;-67
2022/03/29 01:22:10;;;;;;;23.97;17.23;;;;;;;7.35;90.29;101048.50;5113721;28;20185;-67
2022/03/29 01:24:41;;;;;;;20.70;16.37;;;;;;;7.27;90.84;101045.22;5113995;28;20243;-67
2022/03/29 01:27:08;;;;;;;27.17;17.77;;;;;;;7.25;90.86;101037.44;5114094;28;20173;-67
2022/03/29 01:29:37;;;;;;;23.43;18.30;;;;;;;7.29;90.86;101044.31;5113813;28;20209;-67
2022/03/29 01:32:08;;;;;;;20.97;16.93;;;;;;;7.27;90.97;101040.84;5114488;28;20186;-67
2022/03/29 01:34:37;;;;;;;25.97;19.57;;;;;;;7.25;90.84;101032.22;5113883;28;20209;-67
2022/03/29 01:37:07;;;;;;;21.90;15.73;;;;;;;7.25;90.81;101037.44;5131995;27;20242;-67
2022/03/29 01:39:34;;;;;;;25.27;18.17;;;;;;;7.22;90.97;101024.50;5134718;27;20180;-67
2022/03/29 01:42:03;;;;;;;24.37;16.37;;;;;;;7.22;91.03;101028.84;5114395;28;20659;-67
2022/03/29 01:44:30;;;;;;;39.13;17.13;;;;;;;7.20;91.11;101022.78;5113780;28;20213;-67
2022/03/29 01:46:56;;;;;;;25.60;18.90;;;;;;;7.23;91.09;101027.97;5113895;28;20178;-67
2022/03/29 01:49:23;;;;;;;27.13;18.30;;;;;;;7.17;91.33;101027.19;5114044;28;20189;-67
2022/03/29 01:51:50;;;;;;;25.00;19.23;;;;;;;7.19;91.41;101024.53;5127836;27;20562;-67
2022/03/29 01:54:17;;;;;;;25.43;19.73;;;;;;;7.16;91.69;101022.03;5134772;28;20257;-67
2022/03/29 01:56:44;;;;;;;26.73;19.10;;;;;;;7.15;92.11;101021.16;5134125;28;20192;-67
2022/03/29 01:59:11;;;;;;;35.93;19.97;;;;;;;7.25;91.96;101014.00;5134198;28;20233;-67
2022/03/29 02:01:42;;;;;;;31.73;19.97;;;;;;;7.23;92.17;101020.16;5133399;28;20180;-67
2022/03/29 02:04:09;;;;;;;29.23;20.57;;;;;;;7.18;92.28;101017.63;5134121;28;20219;-67
2022/03/29 02:06:36;;;;;;;26.77;19.57;;;;;;;7.16;92.37;101020.28;5123949;28;20599;-67
2022/03/29 02:09:08;;;;;;;27.47;20.20;;;;;;;7.16;92.65;101022.03;5113878;28;20235;-67
2022/03/29 02:11:35;;;;;;;33.97;19.67;;;;;;;7.15;92.71;101017.72;5113810;28;20741;-67
2022/03/29 02:14:02;;;;;;;26.97;20.07;;;;;;;7.14;92.96;101015.97;5113811;28;20710;-67
2022/03/29 02:16:29;;;;;;;36.10;20.90;;;;;;;7.20;93.00;101018.44;5113530;28;20263;-67
2022/03/29 02:18:55;;;;;;;31.33;21.23;;;;;;;7.12;93.33;101007.34;5113734;28;20213;-67
2022/03/29 02:21:22;;;;;;;28.03;20.13;;;;;;;7.15;93.65;101018.56;5119797;28;20229;-67
2022/03/29 02:23:48;;;;;;;35.90;22.17;;;;;;;7.24;93.60;101012.28;5134090;28;20200;-67
2022/03/29 02:26:15;;;;;;;31.80;22.00;;;;;;;7.15;93.78;101010.75;5133979;28;20245;-67
2022/03/29 02:28:41;;;;;;;31.43;21.93;;;;;;;7.27;93.27;101004.38;5133914;28;20196;-67
2022/03/29 02:31:08;;;;;;;30.37;21.30;;;;;;;7.20;93.60;101004.56;5129829;28;20564;-67
2022/03/29 02:33:35;;;;;;;32.40;20.60;;;;;;;7.22;93.81;101002.81;5114832;28;20205;-67
2022/03/29 02:36:01;;;;;;;26.67;21.20;;;;;;;7.12;93.87;100992.56;5118171;27;20186;-67
2022/03/29 02:38:28;;;;;;;33.97;21.80;;;;;;;7.22;93.89;100988.03;5138107;27;20177;-67
2022/03/29 02:40:57;;;;;;;31.27;21.53;;;;;;;7.23;93.68;100981.09;5138370;27;20671;-67
2022/03/29 02:43:26;;;;;;;31.17;20.43;;;;;;;7.16;94.29;100981.22;5129143;27;20216;-68
2022/03/29 02:45:53;;;;;;;33.50;22.40;;;;;;;7.14;94.32;100972.59;5117347;28;20181;-68
2022/03/29 02:48:19;;;;;;;34.23;23.03;;;;;;;7.17;94.24;100974.25;5116980;28;20280;-67
2022/03/29 02:50:46;;;;;;;29.20;21.33;;;;;;;7.15;94.31;100968.25;5116999;28;20205;-67
2022/03/29 02:53:15;;;;;;;33.67;22.50;;;;;;;7.05;94.80;100970.19;5134387;27;20173;-68
2022/03/29 02:55:42;;;;;;;31.20;22.37;;;;;;;7.03;94.94;100969.38;5137559;27;20562;-68
2022/03/29 02:58:09;;;;;;;31.93;22.47;;;;;;;6.99;95.29;100964.25;5137455;27;20188;-67
2022/03/29 03:00:35;;;;;;;27.87;20.57;;;;;;;6.95;95.47;100958.28;5137484;27;20187;-67
2022/03/29 03:03:03;;;;;;;39.20;23.03;;;;;;;7.08;94.95;100962.31;5136451;27;20202;-68
2022/03/29 03:05:31;;;;;;;43.03;23.27;;;;;;;6.93;95.46;100959.19;5137261;27;20189;-68
2022/03/29 03:07:58;;;;;;;33.23;23.40;;;;;;;6.96;95.67;100959.13;5131923;27;20596;-68
2022/03/29 03:10:25;;;;;;;40.63;23.53;;;;;;;6.92;95.82;100954.88;5137078;27;20212;-68
2022/03/29 03:12:52;;;;;;;37.80;23.20;;;;;;;6.88;95.91;100957.56;5137441;27;20646;-68
2022/03/29 03:15:22;;;;;;;42.43;23.87;;;;;;;6.82;96.32;100957.69;5117834;27;20683;-68
2022/03/29 03:17:53;;;;;;;35.43;23.17;;;;;;;6.74;96.38;100951.78;5116786;28;20234;-68
2022/03/29 03:20:21;;;;;;;38.30;22.73;;;;;;;6.88;96.29;100948.88;5116466;28;20184;-68
2022/03/29 03:22:49;;;;;;;40.47;23.67;;;;;;;6.77;96.66;100948.25;5126246;27;20202;-68
2022/03/29 03:25:15;;;;;;;32.07;23.30;;;;;;;6.73;96.72;100946.63;5137111;27;20286;-68
2022/03/29 03:27:42;;;;;;;33.50;24.07;;;;;;;6.70;96.92;100952.75;5137149;27;20195;-68
2022/03/29 03:30:12;;;;;;;37.73;23.07;;;;;;;6.71;97.07;100944.03;5137344;27;20189;-69
2022/03/29 03:32:44;;;;;;;32.83;24.00;;;;;;;6.67;97.47;100945.00;5128343;27;20258;-69
2022/03/29 03:35:17;;;;;;;36.83;23.73;;;;;;;6.68;97.47;100938.06;5116143;28;20211;-69
2022/03/29 03:37:43;;;;;;;35.10;23.97;;;;;;;6.72;97.16;100942.31;5123229;27;20182;-69
2022/03/29 03:40:10;;;;;;;30.03;22.43;;;;;;;6.59;97.68;100934.78;5136964;27;20532;-69
2022/03/29 03:42:38;;;;;;;37.60;22.67;;;;;;;6.59;97.97;100933.91;5136585;27;20213;-69
2022/03/29 03:45:06;;;;;;;34.97;22.90;;;;;;;6.54;98.10;100930.53;5127285;27;20700;-69
2022/03/29 03:47:33;;;;;;;39.10;23.90;;;;;;;6.56;98.16;100926.16;5116257;28;20185;-69
2022/03/29 03:49:59;;;;;;;37.53;22.83;;;;;;;6.55;98.09;100932.25;5115811;28;20239;-69
2022/03/29 03:52:27;;;;;;;40.23;24.23;;;;;;;6.51;98.51;100934.09;5116371;27;20240;-69
2022/03/29 03:54:55;;;;;;;39.70;24.60;;;;;;;6.50;98.21;100931.50;5119138;27;20697;-69
2022/03/29 03:57:22;;;;;;;42.20;24.67;;;;;;;6.44;98.82;100929.91;5122311;27;20190;-69
2022/03/29 03:59:50;;;;;;;40.27;24.93;;;;;;;6.37;99.18;100928.31;5135483;27;20212;-69
2022/03/29 04:02:17;;;;;;;33.10;23.53;;;;;;;6.35;99.35;100920.50;5135931;27;20200;-69
2022/03/29 04:04:44;;;;;;;37.60;24.17;;;;;;;6.30;99.92;100917.19;5122892;27;20203;-69
2022/03/29 04:07:10;;;;;;;39.33;23.90;;;;;;;6.31;100.00;100910.22;5115574;28;20185;-69
2022/03/29 04:09:38;;;;;;;41.57;25.23;;;;;;;6.17;100.00;100907.91;5134207;27;20194;-68
2022/03/29 04:12:06;;;;;;;39.17;25.03;;;;;;;6.20;100.00;100907.84;5136473;27;20216;-68
2022/03/29 04:14:33;;;;;;;38.40;24.37;;;;;;;6.22;100.00;100907.81;5133164;27;20605;-68
2022/03/29 04:17:00;;;;;;;33.67;23.67;;;;;;;6.01;100.00;100904.75;5115474;28;20196;-68
2022/03/29 04:19:26;;;;;;;36.77;23.37;;;;;;;6.16;100.00;100903.59;5115547;28;20182;-68
2022/03/29 04:21:52;;;;;;;42.90;25.40;;;;;;;6.06;100.00;100900.31;5115477;28;20237;-68
2022/03/29 04:24:19;;;;;;;40.40;25.13;;;;;;;5.92;100.00;100898.88;5129350;27;20205;-68
2022/03/29 04:26:47;;;;;;;50.43;23.53;;;;;;;5.98;100.00;100893.56;5135662;27;20186;-68
2022/03/29 04:29:13;;;;;;;40.63;23.37;;;;;;;5.82;100.00;100890.38;5135655;27;20192;-68
2022/03/29 04:31:40;;;;;;;45.20;25.47;;;;;;;5.83;100.00;100896.41;5135540;27;20209;-68
2022/03/29 04:34:07;;;;;;;39.43;24.47;;;;;;;5.90;100.00;100890.22;5122755;27;20255;-69
2022/03/29 04:36:33;;;;;;;44.23;25.60;;;;;;;5.94;100.00;100887.56;5114984;28;20187;-69
2022/03/29 04:39:00;;;;;;;43.47;25.83;;;;;;;5.84;100.00;100890.34;5124082;27;20195;-68
2022/03/29 04:41:26;;;;;;;38.83;25.63;;;;;;;5.77;100.00;100890.44;5135391;27;20189;-68
2022/03/29 04:43:56;;;;;;;45.10;25.63;;;;;;;5.67;100.00;100896.72;5135298;27;20209;-68
2022/03/29 04:46:23;;;;;;;50.20;26.73;;;;;;;5.65;100.00;100884.66;5122412;27;20196;-69
2022/03/29 04:48:52;;;;;;;50.20;25.90;;;;;;;5.68;100.00;100889.78;5114605;28;20179;-69
2022/03/29 04:51:19;;;;;;;49.20;24.90;;;;;;;5.72;100.00;100881.06;5114569;28;20202;-69
2022/03/29 04:53:45;;;;;;;53.00;27.13;;;;;;;5.61;100.00;100883.81;5119931;27;20205;-69
2022/03/29 04:56:12;;;;;;;50.53;26.23;;;;;;;5.55;100.00;100883.94;5134504;27;20202;-69
2022/03/29 04:58:38;;;;;;;52.07;26.23;;;;;;;5.42;100.00;100890.22;5135078;27;20190;-68
2022/03/29 05:01:05;;;;;;;52.33;25.70;;;;;;;5.52;100.00;100884.84;5135320;27;20214;-69
2022/03/29 05:03:33;;;;;;;55.97;27.57;;;;;;;5.57;100.00;100882.16;5131856;27;20646;-69
2022/03/29 05:05:59;;;;;;;56.40;26.77;;;;;;;5.47;100.00;100871.09;5114372;28;20715;-69
2022/03/29 05:08:26;;;;;;;56.80;28.80;;;;;;;5.41;100.00;100878.13;5114308;28;20210;-69
2022/03/29 05:10:52;;;;;;;65.73;28.70;;;;;;;5.48;100.00;100870.19;5134714;27;20184;-68
2022/03/29 05:13:19;;;;;;;58.23;28.00;;;;;;;5.50;100.00;100870.16;5134713;27;20256;-68
2022/03/29 05:15:45;;;;;;;57.50;27.80;;;;;;;5.50;100.00;100857.19;5130711;27;20250;-69
2022/03/29 05:18:12;;;;;;;65.77;28.73;;;;;;;5.48;100.00;100866.75;5114096;28;20694;-69
2022/03/29 05:20:38;;;;;;;55.67;28.63;;;;;;;5.50;100.00;100864.97;5114342;28;20593;-69
2022/03/29 05:23:06;;;;;;;76.37;30.53;;;;;;;5.56;100.00;100859.66;5114522;28;20628;-68
2022/03/29 05:25:34;;;;;;;55.73;29.70;;;;;;;5.58;100.00;100867.47;5130116;27;20199;-69
2022/03/29 05:28:00;;;;;;;59.63;28.40;;;;;;;5.53;100.00;100857.16;5134804;27;20245;-69
2022/03/29 05:30:27;;;;;;;66.10;31.03;;;;;;;5.56;100.00;100853.63;5134579;27;20593;-69
2022/03/29 05:33:00;;;;;;;67.50;29.57;;;;;;;5.62;100.00;100853.50;5134405;27;20613;-69
2022/03/29 05:35:33;;;;;;;65.90;29.13;;;;;;;5.56;100.00;100853.63;5133805;27;20216;-69
2022/03/29 05:38:02;;;;;;;72.63;29.53;;;;;;;5.56;100.00;100851.88;5134403;27;20175;-69
2022/03/29 05:40:29;;;;;;;67.03;30.80;;;;;;;5.57;100.00;100850.13;5120639;27;20185;-69
2022/03/29 05:42:56;;;;;;;61.60;29.63;;;;;;;5.63;100.00;100845.69;5114114;28;20183;-71
2022/03/29 05:45:23;;;;;;;63.07;30.43;;;;;;;5.53;100.00;100854.53;5113936;28;20207;-71
2022/03/29 05:50:35;;;;;;;61.90;29.23;;;;;;;5.46;100.00;100860.75;5113919;28;20213;-70
2022/03/29 05:53:02;;;;;;;78.60;31.00;;;;;;;5.53;100.00;100849.34;5113519;28;20203;-70
2022/03/29 05:55:29;;;;;;;72.90;29.23;;;;;;;5.51;100.00;100857.19;5124113;28;20320;-69
2022/03/29 05:57:55;;;;;;;72.07;31.30;;;;;;;5.67;100.00;100852.56;5113433;28;20592;-69
2022/03/29 06:00:23;;;;;;;71.13;31.87;;;;;;;5.55;100.00;100855.38;5115345;28;20194;-70
2022/03/29 06:02:51;;;;;;;63.90;31.07;;;;;;;5.48;100.00;100856.38;5133844;28;20203;-69
2022/03/29 06:05:18;;;;;;;65.70;29.70;;;;;;;5.65;100.00;100856.94;5134038;28;20250;-69
2022/03/29 06:07:44;;;;;;;69.37;31.57;;;;;;;5.71;100.00;100858.53;5134281;27;20245;-69
2022/03/29 06:10:11;;;;;;;62.30;30.30;;;;;;;5.68;100.00;100861.19;5131693;27;20193;-70
2022/03/29 06:12:37;;;;;;;64.67;29.73;;;;;;;5.67;100.00;100852.56;5117695;28;20258;-70
2022/03/29 06:15:06;;;;;;;77.03;30.27;;;;;;;5.55;100.00;100860.56;5117957;28;20200;-70
2022/03/29 06:17:32;;;;;;;71.03;31.30;;;;;;;5.48;100.00;100871.94;5118192;28;20193;-70
2022/03/29 06:19:59;;;;;;;65.00;30.60;;;;;;;5.57;100.00;100870.91;5117935;27;20197;-70
2022/03/29 06:22:25;;;;;;;69.83;31.50;;;;;;;5.53;100.00;100876.19;5117512;28;20247;-70
2022/03/29 06:24:52;;;;;;;61.53;29.60;;;;;;;5.49;100.00;100871.06;5119136;27;20221;-70
2022/03/29 06:27:18;;;;;;;69.70;29.47;;;;;;;5.55;100.00;100873.53;5121794;27;20187;-70
2022/03/29 06:29:45;;;;;;;74.73;31.47;;;;;;;5.55;100.00;100867.50;5117384;28;20238;-70
2022/03/29 06:32:16;;;;;;;75.03;31.13;;;;;;;5.54;100.00;100861.44;5117878;28;20193;-70
2022/03/29 06:34:42;;;;;;;68.07;30.80;;;;;;;5.56;100.00;100864.88;5117227;28;20205;-70
2022/03/29 06:37:09;;;;;;;67.63;30.00;;;;;;;5.57;100.00;100866.56;5130673;27;20666;-70
2022/03/29 06:39:36;;;;;;;72.73;31.47;;;;;;;5.53;100.00;100864.94;5137777;27;20215;-70
2022/03/29 06:42:03;;;;;;;73.50;31.83;;;;;;;5.49;100.00;100868.47;5119108;27;20310;-69
2022/03/29 06:44:33;;;;;;;75.47;31.00;;;;;;;5.53;100.00;100872.72;5117040;28;20216;-70
2022/03/29 06:47:01;;;;;;;72.90;33.30;;;;;;;5.47;100.00;100875.44;5128193;27;20654;-70
2022/03/29 06:49:28;;;;;;;69.07;31.33;;;;;;;5.58;100.00;100873.50;5137484;27;20588;-71
2022/03/29 06:51:55;;;;;;;81.37;29.73;;;;;;;5.73;100.00;100867.16;5137623;27;20206;-71
2022/03/29 06:54:22;;;;;;;75.93;30.33;;;;;;;5.67;100.00;100864.69;5137433;27;20695;-70
2022/03/29 06:56:49;;;;;;;78.43;31.83;;;;;;;5.71;100.00;100868.91;5122618;27;20192;-70
2022/03/29 06:59:15;;;;;;;61.73;30.67;;;;;;;5.66;100.00;100871.63;5116793;28;20186;-70
2022/03/29 07:01:41;;;;;;;72.73;31.17;;;;;;;5.73;100.00;100868.03;5116679;28;20247;-70
2022/03/29 07:04:09;;;;;;;63.53;30.20;;;;;;;5.60;100.00;100871.72;5116862;28;20198;-70
2022/03/29 07:06:35;;;;;;;67.50;29.87;;;;;;;5.70;100.00;100875.84;5126543;27;20251;-69
2022/03/29 07:12:08;;;;;;;68.10;30.23;;;;;;;5.75;100.00;100878.38;5122030;27;20241;-69
2022/03/29 07:14:35;;;;;;;72.57;29.87;;;;;;;5.62;100.00;100879.50;5116437;28;20205;-69
2022/03/29 07:17:05;;;;;;;64.43;29.23;;;;;;;5.74;100.00;100871.47;5116824;27;20194;-69
2022/03/29 07:19:31;;;;;;;74.27;31.20;;;;;;;5.81;100.00;100875.66;5116402;28;20170;-69
2022/03/29 07:21:58;;;;;;;76.87;29.47;;;;;;;5.84;100.00;100880.78;5116383;28;20186;-69
2022/03/29 07:24:24;;;;;;;70.87;30.60;;;;;;;5.87;100.00;100882.50;5123442;27;20200;-69
2022/03/29 07:26:51;;;;;;;70.40;30.87;;;;;;;5.84;100.00;100885.13;5126261;27;20186;-69
2022/03/29 07:29:18;;;;;;;79.37;31.73;;;;;;;5.87;100.00;100883.34;5132592;27;20219;-69
2022/03/29 07:31:45;;;;;;;84.20;33.13;;;;;;;5.83;100.00;100878.22;5136751;27;20206;-69
2022/03/29 07:34:11;;;;;;;74.53;30.40;;;;;;;5.89;100.00;100883.31;5136717;27;20254;-69
2022/03/29 07:36:38;;;;;;;73.73;31.60;;;;;;;5.76;100.00;100885.28;5136753;27;20187;-69
2022/03/29 07:39:04;;;;;;;73.20;31.63;;;;;;;5.71;100.00;100880.16;5127582;27;20189;-69
2022/03/29 07:41:32;;;;;;;79.80;33.20;;;;;;;5.75;100.00;100874.03;5131014;27;20199;-69
2022/03/29 07:43:59;;;;;;;89.87;33.33;;;;;;;5.90;100.00;100877.22;5115952;28;20691;-70
2022/03/29 07:46:25;;;;;;;77.43;32.40;;;;;;;5.75;100.00;100874.03;5115858;28;20235;-70
2022/03/29 07:48:52;;;;;;;87.77;33.33;;;;;;;5.90;100.00;100879.81;5125004;27;20521;-69
2022/03/29 07:51:39;;;;;;;95.73;33.13;;;;;;;5.96;100.00;100874.53;5136296;27;20225;-69
2022/03/29 07:54:05;;;;;;;95.57;33.50;;;;;;;5.94;100.00;100882.38;5136299;27;20267;-69
2022/03/29 07:56:32;;;;;;;86.80;34.40;;;;;;;5.88;100.00;100884.22;5135152;27;20192;-69
2022/03/29 07:58:59;;;;;;;105.67;33.40;;;;;;;5.95;100.00;100884.09;5136026;27;20189;-69
2022/03/29 08:01:26;;;;;;;103.97;37.50;;;;;;;5.94;100.00;100884.13;5135885;27;20184;-69
2022/03/29 08:03:52;;;;;;;87.17;34.07;;;;;;;5.84;100.00;100885.13;5136508;27;20206;-69
2022/03/29 08:06:19;;;;;;;94.73;34.57;;;;;;;5.87;100.00;100879.91;5136163;27;20192;-69
2022/03/29 08:08:46;;;;;;;103.93;34.67;;;;;;;5.91;100.00;100882.41;5116235;27;20182;-69
2022/03/29 08:11:13;;;;;;;88.03;35.97;;;;;;;5.92;100.00;100875.47;5115611;28;20241;-69
2022/03/29 08:13:39;;;;;;;100.30;34.90;;;;;;;6.01;100.00;100870.97;5134663;27;20206;-69
2022/03/29 08:16:06;;;;;;;76.00;33.90;;;;;;;5.87;100.00;100879.91;5135856;27;20186;-69
2022/03/29 08:18:35;;;;;;;88.43;33.17;;;;;;;5.96;100.00;100872.81;5118760;27;20196;-69
2022/03/29 08:21:03;;;;;;;87.20;31.93;;;;;;;6.08;100.00;100874.31;5115244;28;20209;-69
2022/03/29 08:23:30;;;;;;;90.47;32.60;;;;;;;6.06;100.00;100865.66;5115409;28;20554;-69
2022/03/29 08:25:56;;;;;;;93.93;34.60;;;;;;;5.93;100.00;100869.41;5115186;28;20310;-70
2022/03/29 08:28:23;;;;;;;78.60;31.73;;;;;;;6.01;100.00;100872.72;5130206;27;20186;-69
2022/03/29 08:30:50;;;;;;;75.13;32.43;;;;;;;5.97;100.00;100863.25;5114451;27;20191;-68
2022/03/29 08:33:19;;;;;;;82.83;34.07;;;;;;;5.93;100.00;100865.06;5114998;28;20256;-69
2022/03/29 08:35:45;;;;;;;89.33;35.00;;;;;;;6.00;100.00;100868.38;5116588;27;20190;-68
2022/03/29 08:38:12;;;;;;;93.43;34.80;;;;;;;6.00;100.00;100865.78;5135325;27;20687;-68
2022/03/29 08:40:57;;;;;;;85.93;33.47;;;;;;;6.17;100.00;100868.91;5135879;27;20187;-68
2022/03/29 08:43:29;;;;;;;86.33;34.00;;;;;;;6.25;100.00;100872.22;5121481;27;20211;-68
2022/03/29 08:45:57;;;;;;;103.87;35.53;;;;;;;6.25;100.00;100864.41;5115527;27;20196;-68
2022/03/29 08:48:25;;;;;;;75.00;31.70;;;;;;;6.28;100.00;100876.47;5114618;28;20221;-68
2022/03/29 08:50:53;;;;;;;92.83;33.07;;;;;;;6.33;100.00;100864.25;5120880;27;20184;-68
2022/03/29 08:53:39;;;;;;;82.07;34.30;;;;;;;6.43;100.00;100865.78;5134695;27;20210;-68
2022/03/29 08:56:05;;;;;;;85.33;33.97;;;;;;;6.44;100.00;100856.22;5135020;27;20561;-68
2022/03/29 08:58:32;;;;;;;83.87;35.37;;;;;;;6.55;100.00;100859.41;5122058;27;20226;-68
2022/03/29 09:00:58;;;;;;;91.57;33.80;;;;;;;6.49;100.00;100849.16;5114394;28;20190;-68
2022/03/29 09:03:25;;;;;;;99.77;34.73;;;;;;;6.31;100.00;100847.81;5114530;28;20253;-68
2022/03/29 09:06:05;;;;;;;102.83;35.53;;;;;;;6.44;100.00;100846.66;5114260;28;20274;-68
2022/03/29 09:08:47;;;;;;;85.87;33.87;;;;;;;6.61;100.00;100841.06;5125898;27;20575;-68
2022/03/29 09:11:14;;;;;;;84.33;33.50;;;;;;;6.65;100.00;100840.13;5134923;27;20189;-68
2022/03/29 09:13:41;;;;;;;80.47;34.33;;;;;;;6.54;100.00;100839.50;5122655;27;20604;-69
2022/03/29 09:16:28;;;;;;;90.27;32.83;;;;;;;6.52;100.00;100843.91;5114482;28;20179;-69
2022/03/29 09:18:56;;;;;;;84.13;35.10;;;;;;;6.37;100.00;100839.03;5125656;27;20705;-68
2022/03/29 09:21:24;;;;;;;82.57;33.83;;;;;;;6.40;100.00;100833.75;5134694;27;20177;-68
2022/03/29 09:24:11;;;;;;;91.13;34.27;;;;;;;6.35;100.00;100831.25;5134547;27;20611;-68
2022/03/29 09:26:40;;;;;;;79.70;33.27;;;;;;;6.51;100.00;100832.63;5129640;27;20610;-68
2022/03/29 09:29:21;;;;;;;88.33;33.37;;;;;;;6.46;100.00;100825.81;5120865;27;20718;-68
2022/03/29 09:32:12;;;;;;;80.83;31.53;;;;;;;6.59;100.00;100829.84;5114243;28;20185;-68
2022/03/29 09:34:39;;;;;;;86.30;33.83;;;;;;;6.75;100.00;100825.16;5114137;28;20200;-68
2022/03/29 09:37:06;;;;;;;83.10;32.77;;;;;;;6.88;100.00;100823.97;5114293;28;20722;-69
2022/03/29 09:39:38;;;;;;;84.00;35.00;;;;;;;6.89;100.00;100817.88;5114440;28;20196;-69
2022/03/29 09:42:09;;;;;;;81.17;34.37;;;;;;;6.96;100.00;100813.38;5113957;28;20236;-70
2022/03/29 09:44:46;;;;;;;91.23;34.43;;;;;;;6.85;100.00;100822.28;5111468;27;20247;-69
2022/03/29 09:47:15;;;;;;;84.63;32.23;;;;;;;7.06;100.00;100815.69;5134634;27;20168;-69
2022/03/29 09:50:01;;;;;;;86.10;32.60;;;;;;;7.09;100.00;100817.38;5134252;27;20192;-69
2022/03/29 09:52:39;;;;;;;81.33;34.10;;;;;;;7.01;100.00;100816.72;5134741;27;20197;-69
2022/03/29 09:55:21;;;;;;;80.20;31.80;;;;;;;7.14;100.00;100813.75;5114753;28;20208;-69
2022/03/29 09:57:53;;;;;;;96.00;36.67;;;;;;;7.16;100.00;100819.78;5113690;28;20230;-69
2022/03/29 10:00:29;;;;;;;91.57;35.43;;;;;;;7.20;100.00;100822.28;5133400;28;20249;-69
2022/03/29 10:02:57;;;;;;;95.37;36.03;;;;;;;7.20;100.00;100812.72;5134089;28;20262;-69
2022/03/29 10:05:26;;;;;;;89.43;36.90;;;;;;;7.32;100.00;100815.03;5132107;28;20181;-69
2022/03/29 10:11:02;;;;;;;85.17;36.37;;;;;;;7.36;100.00;100813.22;5113491;28;20272;-69
2022/03/29 10:13:29;;;;;;;84.23;34.30;;;;;;;7.42;100.00;100807.81;5115293;28;20209;-69
2022/03/29 10:15:56;;;;;;;91.07;35.20;;;;;;;7.33;100.00;100798.50;5127230;28;20189;-69
2022/03/29 10:18:27;;;;;;;61.40;31.47;;;;;;;7.24;100.00;100797.91;5113456;28;20191;-69
2022/03/29 10:20:55;;;;;;;82.80;33.37;;;;;;;7.35;100.00;100801.06;5113769;28;20175;-69
2022/03/29 10:23:24;;;;;;;72.80;32.53;;;;;;;7.48;100.00;100798.97;5114198;28;20605;-69
2022/03/29 10:25:53;;;;;;;82.07;33.83;;;;;;;7.60;100.00;100796.03;5119680;28;20236;-69
2022/03/29 10:28:21;;;;;;;75.70;31.83;;;;;;;7.65;100.00;100799.38;5113362;28;20235;-69
2022/03/29 10:30:47;;;;;;;74.00;32.53;;;;;;;7.63;100.00;100791.59;5132983;28;20241;-70
2022/03/29 10:33:15;;;;;;;83.67;33.53;;;;;;;7.54;100.00;100796.22;5121175;28;20674;-69
2022/03/29 10:36:11;;;;;;;69.80;31.97;;;;;;;7.50;100.00;100787.63;5113389;28;20194;-70
2022/03/29 10:38:45;;;;;;;65.00;28.57;;;;;;;7.57;99.59;100790.91;5113247;28;20185;-69
2022/03/29 10:41:24;;;;;;;84.03;32.20;;;;;;;7.58;99.70;100792.63;5113191;28;20169;-69
2022/03/29 10:43:52;;;;;;;76.33;28.43;;;;;;;7.34;100.00;100794.13;5114313;28;20205;-69
2022/03/29 10:46:39;;;;;;;63.40;27.97;;;;;;;7.60;100.00;100790.84;5133794;28;20676;-70
2022/03/29 10:49:28;;;;;;;63.33;27.87;;;;;;;7.61;100.00;100782.13;5134254;28;20181;-70
2022/03/29 10:52:00;;;;;;;65.57;28.70;;;;;;;7.78;99.99;100777.25;5134028;28;20188;-70
2022/03/29 10:54:38;;;;;;;63.30;27.77;;;;;;;7.84;99.01;100778.84;5128422;27;20266;-70
2022/03/29 10:57:07;;;;;;;67.27;27.53;;;;;;;7.85;97.99;100767.50;5116853;28;20192;-69
2022/03/29 10:59:35;;;;;;;60.77;27.37;;;;;;;7.99;97.61;100768.81;5126167;27;20222;-68
2022/03/29 11:02:15;;;;;;;57.13;28.40;;;;;;;7.92;96.38;100761.22;5137388;27;20188;-69
2022/03/29 11:05:06;;;;;;;62.17;26.60;;;;;;;8.09;96.52;100758.13;5137758;27;20293;-69
2022/03/29 11:07:38;;;;;;;58.73;26.93;;;;;;;8.22;96.00;100762.06;5137753;27;20185;-69
2022/03/29 11:10:10;;;;;;;63.80;27.27;;;;;;;8.16;94.87;100759.66;5123575;27;20571;-69
2022/03/29 11:12:40;;;;;;;61.63;28.03;;;;;;;8.20;95.21;100756.03;5117101;28;20189;-69
2022/03/29 11:15:24;;;;;;;53.03;26.10;;;;;;;8.08;94.72;100741.63;5133580;27;20593;-69
2022/03/29 11:17:52;;;;;;;66.33;27.50;;;;;;;8.08;94.74;100743.38;5137561;27;20665;-69
2022/03/29 11:20:33;;;;;;;63.70;27.23;;;;;;;8.21;94.66;100744.69;5134153;27;20468;-70
2022/03/29 11:23:04;;;;;;;68.23;29.60;;;;;;;8.06;94.45;100742.56;5117435;27;20582;-69
2022/03/29 11:25:40;;;;;;;65.10;27.70;;;;;;;8.23;94.76;100740.31;5116510;28;20194;-69
2022/03/29 11:28:12;;;;;;;61.40;27.43;;;;;;;7.93;95.12;100737.75;5121829;27;20225;-69
2022/03/29 11:30:39;;;;;;;57.53;28.60;;;;;;;7.98;95.64;100741.03;5123794;27;20190;-70